Time;durP1;ratioP1;P1;durP2;ratioP2;P2;SDS_P1;SDS_P2;PMS_P1;PMS_P2;Temp;Humidity;BMP_temperature;BMP_pressure;BME280_temperature;BME280_humidity;BME280_pressure;Samples;Min_cycle;Max_cycle;Signal;HPM_P1;HPM_P2
2023/12/09 00:01:49;;;;;;;24.73;9.27;;;7.70;99.90;;;;;;5011176;28;20042;-80
2023/12/09 00:04:16;;;;;;;20.85;7.97;;;7.70;99.90;;;;;;5016552;28;20045;-79
2023/12/09 00:06:47;;;;;;;21.35;7.72;;;7.70;99.90;;;;;;5031347;28;20046;-79
2023/12/09 00:09:17;;;;;;;20.42;8.25;;;7.80;99.90;;;;;;5034496;28;20042;-79
2023/12/09 00:11:45;;;;;;;22.90;7.75;;;7.70;99.90;;;;;;5008608;28;20045;-80
2023/12/09 00:14:12;;;;;;;22.00;7.35;;;7.80;99.90;;;;;;5012976;28;20046;-79
2023/12/09 00:16:40;;;;;;;20.67;7.07;;;7.80;99.90;;;;;;5007560;28;20490;-79
2023/12/09 00:19:08;;;;;;;21.02;7.20;;;7.80;99.90;;;;;;5027687;28;20573;-79
2023/12/09 00:21:36;;;;;;;18.10;6.35;;;7.80;99.90;;;;;;5001969;28;20100;-79
2023/12/09 00:24:03;;;;;;;20.75;6.00;;;7.90;99.90;;;;;;5024543;28;20053;-78
2023/12/09 00:26:30;;;;;;;14.43;5.95;;;7.90;99.90;;;;;;5021958;28;20427;-79
2023/12/09 00:28:57;;;;;;;16.80;5.40;;;7.90;99.90;;;;;;5020389;28;20102;-78
2023/12/09 00:31:25;;;;;;;18.08;6.05;;;8.00;99.90;;;;;;5021511;28;20049;-79
2023/12/09 00:33:52;;;;;;;16.42;5.88;;;8.00;99.90;;;;;;5010785;28;20050;-80
2023/12/09 00:36:19;;;;;;;21.48;6.60;;;8.00;99.90;;;;;;5027150;28;20464;-79
2023/12/09 00:38:46;;;;;;;21.75;5.60;;;8.00;99.90;;;;;;5023495;28;20104;-80
2023/12/09 00:41:12;;;;;;;18.63;5.55;;;8.00;99.90;;;;;;5024927;28;20414;-80
2023/12/09 00:43:39;;;;;;;19.95;6.07;;;8.00;99.90;;;;;;5021284;28;20461;-79
2023/12/09 00:46:06;;;;;;;16.30;5.72;;;8.00;99.90;;;;;;5009373;28;20058;-79
2023/12/09 00:48:33;;;;;;;14.40;5.20;;;8.00;99.90;;;;;;5019931;28;20478;-79
2023/12/09 00:51:00;;;;;;;17.83;6.10;;;8.00;99.90;;;;;;5023025;28;20057;-79
2023/12/09 00:53:27;;;;;;;19.20;5.93;;;7.90;99.90;;;;;;5021712;28;20045;-79
2023/12/09 00:55:53;;;;;;;23.65;5.82;;;7.90;99.90;;;;;;5025834;28;20069;-78
2023/12/09 00:58:20;;;;;;;11.63;5.63;;;8.00;99.90;;;;;;5023401;28;20048;-79
2023/12/09 01:00:47;;;;;;;18.55;6.25;;;7.90;99.90;;;;;;5026626;28;20065;-79
2023/12/09 01:03:14;;;;;;;12.18;5.63;;;7.80;99.90;;;;;;5020184;28;20513;-79
2023/12/09 01:05:41;;;;;;;15.70;6.20;;;7.80;99.90;;;;;;5025834;28;20038;-79
2023/12/09 01:08:08;;;;;;;16.88;7.20;;;7.70;99.90;;;;;;5023685;28;20133;-79
2023/12/09 01:10:34;;;;;;;27.73;7.45;;;7.70;99.90;;;;;;5025336;28;20116;-79
2023/12/09 01:13:01;;;;;;;18.73;6.60;;;7.70;99.90;;;;;;5021260;28;20049;-79
2023/12/09 01:15:28;;;;;;;21.10;6.72;;;7.60;99.90;;;;;;5025623;28;20057;-79
2023/12/09 01:17:55;;;;;;;16.90;6.50;;;7.60;99.90;;;;;;5028063;28;20061;-79
2023/12/09 01:20:24;;;;;;;17.45;5.95;;;7.50;99.90;;;;;;5006815;28;20049;-78
2023/12/09 01:22:51;;;;;;;22.30;6.30;;;7.50;99.90;;;;;;5027699;28;20132;-79
2023/12/09 01:25:18;;;;;;;23.50;7.00;;;7.40;99.90;;;;;;5006104;28;20046;-79
2023/12/09 01:27:45;;;;;;;16.55;6.68;;;7.40;99.90;;;;;;5028463;28;20079;-79
2023/12/09 01:30:12;;;;;;;18.85;5.53;;;7.40;99.90;;;;;;5008747;28;20057;-79
2023/12/09 01:32:39;;;;;;;18.60;5.75;;;7.50;99.90;;;;;;5031223;28;20141;-80
2023/12/09 01:35:06;;;;;;;19.63;6.78;;;7.50;99.90;;;;;;5019945;28;20062;-79
2023/12/09 01:37:33;;;;;;;13.38;5.38;;;7.50;99.90;;;;;;5032301;28;20050;-80
2023/12/09 01:40:00;;;;;;;14.20;5.28;;;7.50;99.90;;;;;;5008953;28;20038;-79
2023/12/09 01:42:26;;;;;;;14.27;5.15;;;7.60;99.90;;;;;;5027603;28;20521;-79
2023/12/09 01:44:53;;;;;;;15.07;4.55;;;7.60;99.90;;;;;;5024609;28;20068;-79
2023/12/09 01:47:21;;;;;;;18.98;5.65;;;7.70;99.90;;;;;;5025655;28;20042;-79
2023/12/09 01:49:48;;;;;;;13.93;4.88;;;7.70;99.90;;;;;;5011357;28;20056;-79
2023/12/09 01:52:15;;;;;;;12.32;4.32;;;7.80;99.90;;;;;;5004859;28;20054;-79
2023/12/09 01:54:42;;;;;;;11.90;5.00;;;7.80;99.90;;;;;;5027166;28;20089;-79
2023/12/09 01:57:09;;;;;;;13.48;4.80;;;7.90;99.90;;;;;;5020842;28;20069;-78
2023/12/09 01:59:36;;;;;;;11.65;4.30;;;7.90;99.90;;;;;;5027196;28;20114;-79
2023/12/09 02:02:03;;;;;;;11.63;3.88;;;7.90;99.90;;;;;;5021022;28;20046;-79
2023/12/09 02:04:30;;;;;;;17.55;5.18;;;7.90;99.90;;;;;;5033808;28;20105;-79
2023/12/09 02:06:57;;;;;;;13.32;3.88;;;8.00;99.90;;;;;;5001109;28;20042;-79
2023/12/09 02:09:24;;;;;;;16.63;4.65;;;8.00;99.90;;;;;;5029697;28;20045;-80
2023/12/09 02:12:10;;;;;;;17.80;4.47;;;8.00;99.90;;;;;;5018738;28;20061;-79
2023/12/09 02:15:01;;;;;;;10.85;3.85;;;8.00;99.90;;;;;;5003372;28;20053;-79
2023/12/09 02:17:42;;;;;;;16.52;3.28;;;8.10;99.90;;;;;;5029270;28;20457;-78
2023/12/09 02:20:11;;;;;;;11.98;3.45;;;8.10;99.90;;;;;;5022797;28;20062;-80
2023/12/09 02:22:38;;;;;;;14.38;5.32;;;8.10;99.90;;;;;;5028351;28;20075;-79
2023/12/09 02:25:05;;;;;;;14.82;4.45;;;8.10;99.90;;;;;;5023630;28;20042;-79
2023/12/09 02:27:47;;;;;;;12.98;3.50;;;8.10;99.90;;;;;;5032243;28;20041;-79
2023/12/09 02:30:38;;;;;;;13.52;3.10;;;8.10;99.90;;;;;;5007806;28;20470;-79
2023/12/09 02:33:08;;;;;;;12.30;4.03;;;8.20;99.90;;;;;;5023676;28;20054;-79
2023/12/09 02:35:40;;;;;;;15.47;3.43;;;8.20;99.90;;;;;;5007322;28;20057;-80
2023/12/09 02:38:08;;;;;;;11.48;3.83;;;8.20;99.90;;;;;;5026510;28;20286;-80
2023/12/09 02:40:36;;;;;;;9.40;3.30;;;8.20;99.90;;;;;;5025545;28;20046;-79
2023/12/09 02:43:03;;;;;;;14.13;3.38;;;8.20;99.90;;;;;;5023040;28;20046;-80
2023/12/09 02:45:30;;;;;;;10.70;3.30;;;8.20;99.90;;;;;;5026669;28;20042;-79
2023/12/09 02:47:57;;;;;;;14.70;3.50;;;8.20;99.90;;;;;;5007355;28;20046;-78
2023/12/09 02:50:24;;;;;;;14.70;3.50;;;8.20;99.90;;;;;;5012976;28;20077;-79
2023/12/09 02:52:50;;;;;;;17.05;3.83;;;8.30;99.90;;;;;;5005566;28;20096;-79
2023/12/09 02:55:17;;;;;;;17.27;4.40;;;8.30;99.90;;;;;;5026934;28;20525;-79
2023/12/09 02:57:44;;;;;;;10.65;3.97;;;8.30;99.90;;;;;;5002867;28;20046;-79
2023/12/09 03:00:11;;;;;;;12.25;3.45;;;8.30;99.90;;;;;;5026227;28;20046;-79
2023/12/09 03:02:38;;;;;;;16.65;2.97;;;8.30;99.90;;;;;;5023631;28;20051;-79
2023/12/09 03:05:06;;;;;;;13.88;3.60;;;8.30;99.90;;;;;;5024598;28;20088;-79
2023/12/09 03:07:32;;;;;;;18.83;4.13;;;8.30;99.90;;;;;;5022856;28;20042;-79
2023/12/09 03:09:59;;;;;;;13.93;3.55;;;8.30;99.90;;;;;;5023752;28;20104;-79
2023/12/09 03:12:26;;;;;;;13.57;3.47;;;8.30;99.90;;;;;;5020238;28;20054;-79
2023/12/09 03:14:53;;;;;;;22.92;3.90;;;8.40;99.90;;;;;;5020538;28;20601;-80
2023/12/09 03:17:21;;;;;;;12.70;4.38;;;8.40;99.90;;;;;;5025125;28;20054;-79
2023/12/09 03:19:48;;;;;;;14.25;4.05;;;8.40;99.90;;;;;;5026722;28;20032;-79
2023/12/09 03:22:15;;;;;;;12.80;4.18;;;8.40;99.90;;;;;;5023122;28;20108;-79
2023/12/09 03:24:43;;;;;;;19.02;4.15;;;8.40;99.90;;;;;;5023997;28;20073;-79
2023/12/09 03:27:10;;;;;;;14.55;3.67;;;8.40;99.90;;;;;;5027878;28;20045;-79
2023/12/09 03:29:37;;;;;;;12.75;3.72;;;8.40;99.90;;;;;;5003015;28;20054;-79
2023/12/09 03:32:04;;;;;;;15.52;3.50;;;8.40;99.90;;;;;;5011921;28;20111;-79
2023/12/09 03:34:31;;;;;;;14.35;3.50;;;8.40;99.90;;;;;;5023464;28;20046;-79
2023/12/09 03:36:58;;;;;;;14.57;3.40;;;8.40;99.90;;;;;;5025873;28;20092;-80
2023/12/09 03:39:24;;;;;;;14.60;3.58;;;8.40;99.90;;;;;;5006311;28;20054;-79
2023/12/09 03:41:51;;;;;;;10.95;2.65;;;8.40;99.90;;;;;;5029696;28;20037;-80
2023/12/09 03:44:18;;;;;;;10.07;3.78;;;8.40;99.90;;;;;;5020838;28;20482;-80
2023/12/09 03:46:44;;;;;;;8.15;2.60;;;8.40;99.90;;;;;;5012564;28;20051;-78
2023/12/09 03:49:11;;;;;;;14.20;2.90;;;8.40;99.90;;;;;;5034204;28;20030;-79
2023/12/09 03:51:38;;;;;;;8.85;2.22;;;8.40;99.90;;;;;;5035264;28;20034;-79
2023/12/09 03:54:05;;;;;;;7.72;2.15;;;8.40;99.90;;;;;;5007802;28;20129;-79
2023/12/09 03:56:32;;;;;;;12.05;2.60;;;8.40;99.90;;;;;;5022434;28;20180;-77
2023/12/09 03:59:00;;;;;;;10.95;2.72;;;8.40;99.90;;;;;;5018925;28;20104;-79
2023/12/09 04:01:26;;;;;;;8.18;2.50;;;8.40;99.90;;;;;;5003357;28;20477;-79
2023/12/09 04:03:53;;;;;;;14.45;3.28;;;8.40;99.90;;;;;;5025763;28;20105;-79
2023/12/09 04:06:21;;;;;;;10.05;2.55;;;8.40;99.90;;;;;;5020524;28;20056;-79
2023/12/09 04:08:48;;;;;;;9.27;2.55;;;8.50;99.90;;;;;;5026379;28;20038;-79
2023/12/09 04:11:14;;;;;;;7.60;1.65;;;8.50;99.90;;;;;;5020527;28;20081;-79
2023/12/09 04:13:41;;;;;;;5.68;2.00;;;8.40;99.90;;;;;;5032352;28;20076;-80
2023/12/09 04:16:08;;;;;;;6.32;1.67;;;8.50;99.90;;;;;;5018805;28;20054;-80
2023/12/09 04:18:36;;;;;;;7.05;1.92;;;8.50;99.90;;;;;;5005728;28;20060;-79
2023/12/09 04:21:04;;;;;;;8.70;3.25;;;8.50;99.90;;;;;;5015723;28;20077;-79
2023/12/09 04:23:30;;;;;;;8.38;2.58;;;8.50;99.90;;;;;;5027569;28;20071;-78
2023/12/09 04:25:58;;;;;;;8.98;2.70;;;8.50;99.90;;;;;;5011544;28;20108;-79
2023/12/09 04:28:24;;;;;;;7.00;2.25;;;8.50;99.90;;;;;;5024479;28;20104;-79
2023/12/09 04:30:51;;;;;;;3.95;2.10;;;8.50;99.90;;;;;;5022957;28;20068;-79
2023/12/09 04:33:18;;;;;;;8.13;2.10;;;8.50;99.90;;;;;;5015306;28;20078;-80
2023/12/09 04:35:45;;;;;;;10.68;2.22;;;8.40;99.90;;;;;;5031509;28;20049;-80
2023/12/09 04:38:12;;;;;;;5.13;2.00;;;8.40;99.90;;;;;;5026122;28;20050;-79
2023/12/09 04:40:39;;;;;;;8.15;2.13;;;8.50;99.90;;;;;;5030075;28;20037;-79
2023/12/09 04:43:05;;;;;;;7.00;1.88;;;8.40;99.90;;;;;;5023604;28;20065;-79
2023/12/09 04:45:32;;;;;;;9.52;2.20;;;8.40;99.90;;;;;;5010109;28;20448;-79
2023/12/09 04:47:59;;;;;;;5.15;1.80;;;8.40;99.90;;;;;;5021438;28;20097;-79
2023/12/09 04:50:26;;;;;;;9.50;2.55;;;8.40;99.90;;;;;;5032095;28;20077;-79
2023/12/09 04:52:53;;;;;;;4.72;2.08;;;8.40;99.90;;;;;;5009179;28;20050;-79
2023/12/09 04:55:20;;;;;;;5.10;2.75;;;8.50;99.90;;;;;;5029812;28;20050;-79
2023/12/09 04:57:46;;;;;;;12.57;2.30;;;8.40;99.90;;;;;;5008600;28;20570;-79
2023/12/09 05:00:13;;;;;;;7.00;2.65;;;8.50;99.90;;;;;;5029021;28;20089;-79
2023/12/09 05:02:40;;;;;;;5.15;1.50;;;8.40;99.90;;;;;;5026356;28;20230;-79
2023/12/09 05:05:07;;;;;;;3.65;1.70;;;8.40;99.90;;;;;;5030240;28;20046;-79
2023/12/09 05:07:34;;;;;;;6.03;1.85;;;8.40;99.90;;;;;;5015470;28;20045;-79
2023/12/09 05:10:00;;;;;;;3.70;1.60;;;8.40;99.90;;;;;;5015149;28;20140;-79
2023/12/09 05:12:27;;;;;;;2.58;1.20;;;8.40;99.90;;;;;;5024165;28;20108;-78
2023/12/09 05:14:54;;;;;;;4.72;1.70;;;8.40;99.90;;;;;;5021501;28;20108;-78
2023/12/09 05:17:21;;;;;;;6.85;2.00;;;8.40;99.90;;;;;;5021590;28;20110;-78
2023/12/09 05:19:48;;;;;;;9.27;1.50;;;8.40;99.90;;;;;;5022073;28;20053;-79
2023/12/09 05:22:15;;;;;;;3.97;1.95;;;8.40;99.90;;;;;;5025488;28;20046;-79
2023/12/09 05:24:42;;;;;;;3.38;1.70;;;8.40;99.90;;;;;;5025453;28;20049;-79
2023/12/09 05:27:09;;;;;;;4.40;1.55;;;8.40;99.90;;;;;;5028359;28;20045;-79
2023/12/09 05:29:36;;;;;;;4.07;1.73;;;8.40;99.90;;;;;;5024745;28;20053;-79
2023/12/09 05:32:03;;;;;;;10.25;2.00;;;8.40;99.90;;;;;;5029448;28;20046;-79
2023/12/09 05:34:29;;;;;;;3.35;1.38;;;8.40;99.90;;;;;;5027131;28;20077;-79
2023/12/09 05:36:56;;;;;;;6.32;1.63;;;8.40;99.90;;;;;;5032129;28;20050;-79
2023/12/09 05:39:23;;;;;;;3.25;1.60;;;8.40;99.90;;;;;;5023351;28;20058;-79
2023/12/09 05:41:50;;;;;;;5.25;1.83;;;8.40;99.90;;;;;;5023266;28;20120;-77
2023/12/09 05:44:16;;;;;;;6.03;1.80;;;8.30;99.90;;;;;;5015663;28;20050;-78
2023/12/09 05:46:43;;;;;;;7.70;1.88;;;8.30;99.90;;;;;;5001259;28;20053;-77
2023/12/09 05:49:10;;;;;;;4.65;1.55;;;8.30;99.90;;;;;;5012986;28;20050;-77
2023/12/09 05:51:37;;;;;;;5.60;1.70;;;8.30;99.90;;;;;;5016592;28;20073;-77
2023/12/09 05:54:03;;;;;;;5.50;1.58;;;8.30;99.90;;;;;;5013042;28;20406;-77
2023/12/09 05:56:30;;;;;;;4.70;1.45;;;8.30;99.90;;;;;;5017357;28;20081;-78
2023/12/09 05:58:57;;;;;;;3.80;1.40;;;8.30;99.90;;;;;;5023214;28;20064;-77
2023/12/09 06:01:24;;;;;;;3.03;1.40;;;8.30;99.90;;;;;;5017760;28;20101;-78
2023/12/09 06:03:51;;;;;;;4.82;1.30;;;8.30;99.90;;;;;;5023307;28;20045;-78
2023/12/09 06:06:17;;;;;;;5.18;1.35;;;8.30;99.90;;;;;;5001430;28;20050;-78
2023/12/09 06:08:44;;;;;;;5.45;1.45;;;8.30;99.90;;;;;;5026234;28;20054;-78
2023/12/09 06:11:11;;;;;;;2.78;1.48;;;8.30;99.90;;;;;;5012501;28;20518;-78
2023/12/09 06:13:38;;;;;;;4.53;1.50;;;8.30;99.90;;;;;;5024857;28;20049;-78
2023/12/09 06:16:05;;;;;;;5.32;1.67;;;8.30;99.90;;;;;;5001251;28;20077;-78
2023/12/09 06:18:31;;;;;;;4.43;1.52;;;8.40;99.90;;;;;;5023037;28;20053;-78
2023/12/09 06:20:58;;;;;;;6.63;1.80;;;8.40;99.90;;;;;;5018236;28;20105;-78
2023/12/09 06:23:25;;;;;;;4.32;1.50;;;8.40;99.90;;;;;;5021329;28;20042;-77
2023/12/09 06:25:52;;;;;;;4.30;1.73;;;8.40;99.90;;;;;;5017661;28;20045;-77
2023/12/09 06:28:19;;;;;;;3.83;1.75;;;8.30;99.90;;;;;;5019061;28;20047;-78
2023/12/09 06:30:46;;;;;;;3.15;1.35;;;8.30;99.90;;;;;;5017115;28;20056;-78
2023/12/09 06:33:12;;;;;;;7.07;1.52;;;8.30;99.90;;;;;;5018276;28;20486;-78
2023/12/09 06:35:39;;;;;;;5.55;1.90;;;8.30;99.90;;;;;;5022902;28;20493;-78
2023/12/09 06:38:06;;;;;;;5.53;1.42;;;8.30;99.90;;;;;;5004245;28;20053;-78
2023/12/09 06:40:33;;;;;;;3.10;1.42;;;8.30;99.90;;;;;;5020136;28;20042;-77
2023/12/09 06:42:59;;;;;;;3.97;1.42;;;8.30;99.90;;;;;;4998858;28;20038;-78
2023/12/09 06:45:26;;;;;;;4.72;1.48;;;8.20;99.90;;;;;;5024097;28;20046;-78
2023/12/09 06:47:54;;;;;;;3.47;1.20;;;8.20;99.90;;;;;;5015104;28;20042;-79
2023/12/09 06:50:22;;;;;;;2.75;2.13;;;8.10;99.90;;;;;;5023006;28;20421;-78
2023/12/09 06:52:49;;;;;;;5.18;1.80;;;8.10;99.90;;;;;;5014267;28;20050;-78
2023/12/09 06:55:15;;;;;;;2.50;1.02;;;8.10;99.90;;;;;;5020088;28;20100;-78
2023/12/09 06:57:42;;;;;;;6.28;1.45;;;8.10;99.90;;;;;;5018051;28;20107;-78
2023/12/09 07:00:10;;;;;;;2.92;1.15;;;8.10;99.90;;;;;;5022914;28;20077;-78
2023/12/09 07:02:36;;;;;;;3.20;1.15;;;8.10;99.90;;;;;;4999584;28;20176;-78
2023/12/09 07:05:21;;;;;;;5.47;1.55;;;8.10;99.90;;;;;;5018254;28;20054;-78
2023/12/09 07:07:49;;;;;;;2.58;1.10;;;8.20;99.90;;;;;;5009039;28;20053;-78
2023/12/09 07:10:16;;;;;;;2.05;1.63;;;8.20;99.90;;;;;;5016220;28;20430;-78
2023/12/09 07:12:43;;;;;;;3.17;1.25;;;8.20;99.90;;;;;;5021277;28;20041;-79
2023/12/09 07:15:12;;;;;;;2.05;1.20;;;8.20;99.90;;;;;;5003137;28;20050;-79
2023/12/09 07:17:38;;;;;;;2.40;1.08;;;8.20;99.90;;;;;;5007451;28;20077;-78
2023/12/09 07:20:06;;;;;;;1.60;0.90;;;8.20;99.90;;;;;;5015124;28;20049;-78
2023/12/09 07:22:33;;;;;;;2.15;1.38;;;8.20;99.90;;;;;;5028083;28;20077;-78
2023/12/09 07:24:59;;;;;;;2.15;1.02;;;8.20;99.90;;;;;;5012641;28;20076;-78
2023/12/09 07:27:26;;;;;;;2.67;1.02;;;8.20;99.90;;;;;;5024679;28;20046;-79
2023/12/09 07:29:53;;;;;;;5.00;1.98;;;8.30;99.90;;;;;;5007754;28;20496;-78
2023/12/09 07:32:20;;;;;;;3.97;2.10;;;8.30;99.90;;;;;;5030113;28;20075;-78
2023/12/09 07:34:48;;;;;;;3.92;1.80;;;8.30;99.90;;;;;;5025030;28;20068;-79
2023/12/09 07:37:14;;;;;;;2.72;1.15;;;8.30;99.90;;;;;;5008618;28;20112;-78
2023/12/09 07:39:42;;;;;;;1.67;1.02;;;8.40;99.90;;;;;;5022370;28;20061;-78
2023/12/09 07:42:09;;;;;;;3.50;1.85;;;8.40;99.90;;;;;;5019708;28;20053;-78
2023/12/09 07:44:36;;;;;;;26.70;14.98;;;8.40;99.90;;;;;;5018889;28;20053;-77
2023/12/09 07:47:03;;;;;;;22.50;11.02;;;8.40;99.90;;;;;;5009092;28;20497;-77
2023/12/09 07:49:30;;;;;;;13.60;6.78;;;8.50;99.90;;;;;;5014554;28;20042;-77
2023/12/09 07:51:57;;;;;;;6.78;4.00;;;8.50;99.90;;;;;;5010645;28;20041;-78
2023/12/09 07:54:24;;;;;;;8.00;3.83;;;8.60;99.90;;;;;;5017264;28;20100;-77
2023/12/09 07:56:51;;;;;;;6.60;3.28;;;8.60;99.90;;;;;;5021083;28;20050;-78
2023/12/09 07:59:17;;;;;;;9.15;2.75;;;8.60;99.90;;;;;;5006379;28;20050;-78
2023/12/09 08:01:44;;;;;;;6.97;3.22;;;8.70;99.90;;;;;;5016570;28;20042;-78
2023/12/09 08:04:11;;;;;;;3.40;1.20;;;8.70;99.90;;;;;;5021570;28;20154;-77
2023/12/09 08:06:38;;;;;;;3.78;1.67;;;8.70;99.90;;;;;;5020901;28;20081;-79
2023/12/09 08:09:06;;;;;;;3.30;1.58;;;8.80;99.90;;;;;;5009384;28;20061;-78
2023/12/09 08:11:33;;;;;;;2.70;1.30;;;8.80;99.90;;;;;;5021436;28;20485;-79
2023/12/09 08:14:00;;;;;;;3.88;1.73;;;8.80;99.90;;;;;;5018979;28;20062;-77
2023/12/09 08:16:27;;;;;;;4.90;0.95;;;8.90;99.90;;;;;;5024186;28;20050;-79
2023/12/09 08:18:54;;;;;;;4.43;1.20;;;8.90;99.90;;;;;;5026654;28;20077;-79
2023/12/09 08:21:21;;;;;;;1.23;0.75;;;8.90;99.90;;;;;;5001786;28;20046;-77
2023/12/09 08:23:47;;;;;;;1.38;0.60;;;8.90;99.90;;;;;;5018145;28;20050;-79
2023/12/09 08:26:18;;;;;;;1.88;0.77;;;9.00;99.90;;;;;;5003764;28;20042;-76
2023/12/09 08:28:45;;;;;;;0.65;0.50;;;9.00;99.90;;;;;;5017089;28;20498;-78
2023/12/09 08:31:13;;;;;;;2.42;0.75;;;9.00;99.90;;;;;;5025192;28;20088;-77
2023/12/09 08:33:40;;;;;;;4.20;0.82;;;9.00;99.90;;;;;;5019821;28;20054;-78
2023/12/09 08:36:09;;;;;;;0.80;0.70;;;9.00;99.90;;;;;;5023117;28;20129;-77
2023/12/09 08:38:36;;;;;;;0.90;0.70;;;9.00;99.90;;;;;;5016914;28;20395;-78
2023/12/09 08:41:03;;;;;;;1.65;0.70;;;9.00;99.90;;;;;;5022628;28;20088;-78
2023/12/09 08:43:29;;;;;;;3.55;1.42;;;9.00;99.90;;;;;;5017080;28;20046;-77
2023/12/09 08:45:56;;;;;;;2.30;0.75;;;9.00;99.90;;;;;;5027568;28;20510;-78
2023/12/09 08:48:24;;;;;;;2.25;1.10;;;9.00;99.90;;;;;;5017037;28;20046;-78
2023/12/09 08:50:51;;;;;;;2.78;1.20;;;9.00;99.90;;;;;;5027297;28;20068;-78
2023/12/09 08:53:17;;;;;;;3.95;0.80;;;9.00;99.90;;;;;;5008033;28;20050;-78
2023/12/09 08:55:44;;;;;;;1.67;0.80;;;9.00;99.90;;;;;;5009652;28;20057;-77
2023/12/09 08:58:11;;;;;;;2.92;0.88;;;9.00;99.90;;;;;;5000336;28;20050;-78
2023/12/09 09:00:38;;;;;;;3.53;0.68;;;9.00;99.90;;;;;;5020696;28;20050;-78
2023/12/09 09:03:05;;;;;;;1.75;0.60;;;9.00;99.90;;;;;;5019408;28;20050;-78
2023/12/09 09:05:32;;;;;;;1.05;0.60;;;9.10;99.90;;;;;;5020266;28;20050;-77
2023/12/09 09:07:58;;;;;;;1.92;0.85;;;9.10;99.90;;;;;;5023623;28;20051;-78
2023/12/09 09:10:25;;;;;;;2.53;0.80;;;9.10;99.90;;;;;;5016452;28;20046;-78
2023/12/09 09:12:52;;;;;;;0.50;0.50;;;9.20;99.90;;;;;;5021991;28;20069;-78
2023/12/09 09:15:19;;;;;;;2.20;0.60;;;9.20;99.90;;;;;;5014979;28;20122;-78
2023/12/09 09:17:46;;;;;;;1.00;0.55;;;9.10;99.90;;;;;;5011919;28;20045;-78
2023/12/09 09:20:13;;;;;;;0.95;0.40;;;9.10;99.90;;;;;;5014541;28;20152;-78
2023/12/09 09:22:41;;;;;;;1.70;0.50;;;9.10;99.90;;;;;;5025615;28;20054;-78
2023/12/09 09:25:13;;;;;;;0.40;0.40;;;9.10;99.90;;;;;;5013515;28;20133;-78
2023/12/09 09:27:40;;;;;;;1.30;0.70;;;9.10;99.90;;;;;;5011313;28;20526;-78
2023/12/09 09:30:07;;;;;;;1.13;0.65;;;9.10;99.90;;;;;;5009076;28;20056;-78
2023/12/09 09:32:34;;;;;;;0.55;0.52;;;9.10;99.90;;;;;;5022567;28;20098;-78
2023/12/09 09:35:01;;;;;;;1.50;0.57;;;9.10;99.90;;;;;;5020561;28;20160;-78
2023/12/09 09:37:28;;;;;;;1.30;0.70;;;9.10;99.90;;;;;;5020858;28;20057;-78
2023/12/09 09:39:55;;;;;;;0.43;0.40;;;9.10;99.90;;;;;;5024738;28;20520;-78
2023/12/09 09:42:43;;;;;;;2.13;0.77;;;9.10;99.90;;;;;;5018464;28;20058;-78
2023/12/09 09:45:10;;;;;;;1.73;0.50;;;9.10;99.90;;;;;;5023448;28;20042;-78
2023/12/09 09:47:37;;;;;;;3.63;1.00;;;9.10;99.90;;;;;;5014983;28;20046;-78
2023/12/09 09:50:06;;;;;;;0.63;0.50;;;9.10;99.90;;;;;;5021506;28;20046;-78
2023/12/09 09:52:36;;;;;;;5.93;1.08;;;9.10;99.90;;;;;;5003224;28;20050;-77
2023/12/09 09:55:06;;;;;;;2.30;0.70;;;9.10;99.90;;;;;;5008633;28;20046;-78
2023/12/09 09:57:33;;;;;;;;;;;9.10;99.90;;;;;;5017004;28;20355;-78
2023/12/09 10:00:00;;;;;;;1.20;0.63;;;9.10;99.90;;;;;;5024332;28;20454;-78
2023/12/09 10:02:27;;;;;;;2.60;1.40;;;9.10;99.90;;;;;;5018874;28;20054;-78
2023/12/09 10:04:55;;;;;;;1.23;0.70;;;9.10;99.90;;;;;;5023245;28;20133;-78
2023/12/09 10:07:22;;;;;;;2.13;0.77;;;9.00;99.90;;;;;;5017119;28;20046;-77
2023/12/09 10:09:49;;;;;;;0.85;0.50;;;9.00;99.90;;;;;;5014855;28;20073;-77
2023/12/09 10:12:16;;;;;;;1.88;0.70;;;9.00;99.90;;;;;;5009952;28;20196;-77
2023/12/09 10:14:43;;;;;;;3.45;0.80;;;9.00;99.90;;;;;;5013370;28;20138;-77
2023/12/09 10:17:13;;;;;;;1.55;0.70;;;9.00;99.90;;;;;;5002985;28;20050;-77
2023/12/09 10:19:39;;;;;;;2.42;0.82;;;9.10;99.90;;;;;;5010490;28;20258;-77
2023/12/09 10:22:07;;;;;;;2.70;0.93;;;9.10;99.90;;;;;;5001972;28;20046;-77
2023/12/09 10:24:33;;;;;;;1.65;0.80;;;9.10;99.90;;;;;;4998398;28;20050;-78
2023/12/09 10:27:01;;;;;;;3.10;1.00;;;9.10;99.90;;;;;;5027176;28;20412;-79
2023/12/09 10:29:27;;;;;;;1.02;0.70;;;9.20;99.90;;;;;;5008362;28;20042;-77
2023/12/09 10:31:55;;;;;;;1.52;0.68;;;9.30;99.90;;;;;;5000716;28;20045;-77
2023/12/09 10:34:21;;;;;;;1.67;0.90;;;9.30;99.90;;;;;;5005242;28;20085;-77
2023/12/09 10:36:48;;;;;;;1.15;0.80;;;9.40;99.90;;;;;;5018435;28;20140;-77
2023/12/09 10:39:15;;;;;;;0.77;0.55;;;9.50;99.90;;;;;;5015132;28;20089;-77
2023/12/09 10:41:45;;;;;;;0.88;0.70;;;9.60;99.90;;;;;;5014466;28;20482;-77
2023/12/09 10:44:12;;;;;;;0.77;0.70;;;9.70;99.90;;;;;;5013123;28;20042;-77
2023/12/09 10:46:38;;;;;;;0.90;0.60;;;9.80;99.90;;;;;;5001374;28;20042;-77
2023/12/09 10:49:05;;;;;;;0.50;0.40;;;9.90;99.90;;;;;;5010574;28;20046;-78
2023/12/09 10:51:32;;;;;;;0.55;0.50;;;10.00;99.90;;;;;;5011143;28;20046;-77
2023/12/09 10:53:59;;;;;;;2.47;0.38;;;10.00;99.90;;;;;;5016890;28;20080;-77
2023/12/09 10:56:26;;;;;;;1.80;0.40;;;10.00;99.90;;;;;;4996288;28;20057;-77
2023/12/09 10:58:55;;;;;;;1.40;0.47;;;10.10;99.90;;;;;;5013544;28;20072;-77
2023/12/09 11:01:23;;;;;;;1.40;0.38;;;10.10;99.90;;;;;;4990017;28;20104;-77
2023/12/09 11:03:49;;;;;;;2.83;0.70;;;10.10;99.90;;;;;;5019522;28;20046;-77
2023/12/09 11:06:17;;;;;;;2.30;0.50;;;10.20;99.90;;;;;;4994922;28;20136;-77
2023/12/09 11:08:45;;;;;;;0.90;0.63;;;10.20;99.90;;;;;;5018662;28;20137;-80
2023/12/09 11:11:12;;;;;;;1.65;1.05;;;10.20;99.90;;;;;;5001891;28;20053;-78
2023/12/09 11:13:46;;;;;;;1.10;0.80;;;10.30;99.90;;;;;;5022937;28;20092;-78
2023/12/09 11:16:15;;;;;;;0.65;0.57;;;10.30;99.90;;;;;;5017696;28;20050;-78
2023/12/09 11:18:52;;;;;;;0.70;0.60;;;10.30;99.90;;;;;;5020033;28;20057;-79
2023/12/09 11:21:22;;;;;;;1.35;0.50;;;10.30;99.90;;;;;;5016313;28;20570;-78
2023/12/09 11:23:51;;;;;;;0.77;0.50;;;10.40;99.90;;;;;;5021811;28;20099;-78
2023/12/09 11:26:25;;;;;;;1.77;0.63;;;10.40;99.90;;;;;;5027507;28;20076;-78
2023/12/09 11:29:06;;;;;;;1.50;0.40;;;10.50;99.90;;;;;;5028611;28;20042;-78
2023/12/09 11:31:36;;;;;;;0.57;0.50;;;10.50;99.90;;;;;;5033400;28;20073;-78
2023/12/09 11:34:05;;;;;;;1.38;0.52;;;10.60;99.90;;;;;;5007617;28;20046;-78
2023/12/09 11:36:35;;;;;;;0.70;0.55;;;10.60;99.90;;;;;;5037193;28;20065;-78
2023/12/09 11:39:04;;;;;;;;;;;10.60;99.90;;;;;;5033492;28;20034;-78
2023/12/09 11:41:32;;;;;;;1.00;0.65;;;10.50;99.90;;;;;;5020188;28;19920;-79
2023/12/09 11:44:03;;;;;;;4.38;1.48;;;10.50;99.90;;;;;;5033479;28;20060;-78
2023/12/09 11:46:34;;;;;;;1.85;0.82;;;10.50;99.90;;;;;;5034806;28;20034;-78
2023/12/09 11:49:05;;;;;;;2.08;0.90;;;10.50;99.90;;;;;;5035857;28;20037;-78
2023/12/09 11:51:36;;;;;;;1.98;1.35;;;10.50;99.90;;;;;;5033439;28;20038;-78
2023/12/09 11:54:04;;;;;;;1.05;0.85;;;10.60;99.90;;;;;;5022157;28;20040;-78
2023/12/09 11:56:31;;;;;;;1.77;0.85;;;10.60;99.90;;;;;;5020059;28;20039;-78
2023/12/09 11:58:58;;;;;;;0.95;0.70;;;10.60;99.90;;;;;;5037016;28;20049;-78
2023/12/09 12:01:27;;;;;;;2.63;0.80;;;10.60;99.90;;;;;;5018624;28;20061;-78
2023/12/09 12:03:55;;;;;;;1.48;0.80;;;10.60;99.90;;;;;;5024816;28;20053;-78
2023/12/09 12:06:23;;;;;;;0.95;0.80;;;10.60;99.90;;;;;;5018727;28;20065;-78
2023/12/09 12:08:52;;;;;;;1.10;0.88;;;10.60;99.90;;;;;;5040648;28;20076;-78
2023/12/09 12:11:21;;;;;;;0.90;0.80;;;10.50;99.90;;;;;;5035198;28;20034;-78
2023/12/09 12:13:49;;;;;;;2.08;1.05;;;10.50;99.90;;;;;;5038390;28;20038;-78
2023/12/09 12:16:16;;;;;;;2.30;0.95;;;10.50;99.90;;;;;;5023289;28;20134;-78
2023/12/09 12:18:44;;;;;;;2.05;1.35;;;10.50;99.90;;;;;;5036844;28;20031;-78
2023/12/09 12:21:11;;;;;;;1.02;0.70;;;10.50;99.90;;;;;;5031265;28;20069;-78
2023/12/09 12:23:39;;;;;;;1.73;1.02;;;10.50;99.90;;;;;;5033514;28;20038;-78
2023/12/09 12:26:08;;;;;;;2.15;0.90;;;10.40;99.90;;;;;;5022785;28;20045;-78
2023/12/09 12:28:36;;;;;;;1.85;1.10;;;10.40;99.90;;;;;;5032588;28;20035;-78
2023/12/09 12:31:04;;;;;;;1.58;1.00;;;10.40;99.90;;;;;;5037144;28;20045;-78
2023/12/09 12:33:31;;;;;;;0.95;0.85;;;10.40;99.90;;;;;;5030789;28;20070;-78
2023/12/09 12:35:59;;;;;;;2.03;0.95;;;10.40;99.90;;;;;;5026031;28;20029;-78
2023/12/09 12:38:26;;;;;;;2.40;1.13;;;10.40;99.90;;;;;;5029625;28;20041;-78
2023/12/09 12:40:55;;;;;;;2.60;1.20;;;10.40;99.90;;;;;;5026447;28;20032;-78
2023/12/09 12:43:21;;;;;;;1.85;1.10;;;10.30;99.90;;;;;;5013666;28;20042;-78
2023/12/09 12:45:49;;;;;;;1.27;0.82;;;10.30;99.90;;;;;;5021007;28;20053;-77
2023/12/09 12:48:17;;;;;;;1.98;1.20;;;10.30;99.90;;;;;;5025289;28;20053;-78
2023/12/09 12:50:48;;;;;;;2.03;1.15;;;10.20;99.90;;;;;;5010431;28;20060;-78
2023/12/09 12:53:17;;;;;;;1.40;0.90;;;10.20;99.90;;;;;;5018042;28;20050;-78
2023/12/09 12:55:44;;;;;;;2.90;1.90;;;10.20;99.90;;;;;;5015649;28;20486;-77